createdAt,value
2023-03-29T00:01:42.087Z,5.08
2023-03-29T00:04:10.216Z,5.07
2023-03-29T00:06:59.461Z,5.06
2023-03-29T00:09:26.704Z,5.06
2023-03-29T00:11:53.477Z,5.08
2023-03-29T00:14:19.998Z,5.08
2023-03-29T00:16:46.872Z,5.10
2023-03-29T00:19:13.556Z,5.10
2023-03-29T00:21:40.024Z,5.09
2023-03-29T00:24:06.566Z,5.07
2023-03-29T00:26:32.969Z,5.06
2023-03-29T00:28:59.631Z,5.06
2023-03-29T00:31:27.330Z,5.05
2023-03-29T00:33:53.902Z,5.05
2023-03-29T00:36:22.080Z,5.03
2023-03-29T00:38:48.651Z,5.03
2023-03-29T00:41:15.269Z,5.05
2023-03-29T00:43:56.246Z,5.04
2023-03-29T00:46:23.645Z,5.05
2023-03-29T00:48:53.040Z,5.05
2023-03-29T00:51:22.867Z,5.04
2023-03-29T00:53:53.546Z,5.06
2023-03-29T00:56:37.097Z,5.06
2023-03-29T00:59:15.628Z,5.09
2023-03-29T01:02:03.398Z,5.09
2023-03-29T01:04:41.711Z,5.12
2023-03-29T01:07:30.737Z,5.14
2023-03-29T01:10:23.526Z,5.15
2023-03-29T01:13:03.667Z,5.17
2023-03-29T01:15:30.747Z,5.20
2023-03-29T01:17:58.358Z,5.23
2023-03-29T01:20:43.492Z,5.26
2023-03-29T01:23:34.824Z,5.27
2023-03-29T01:26:19.906Z,5.30
2023-03-29T01:28:56.525Z,5.33
2023-03-29T01:31:28.366Z,5.35
2023-03-29T01:34:08.738Z,5.39
2023-03-29T01:36:58.769Z,5.43
2023-03-29T01:39:25.209Z,5.47
2023-03-29T01:41:57.662Z,5.48
2023-03-29T01:45:03.447Z,5.49
2023-03-29T01:48:03.507Z,5.52
2023-03-29T01:50:43.190Z,5.56
2023-03-29T01:53:38.505Z,5.60
2023-03-29T01:56:18.539Z,5.62
2023-03-29T01:58:52.874Z,5.63
2023-03-29T02:01:25.850Z,5.62
2023-03-29T02:03:57.573Z,5.62
2023-03-29T02:06:27.675Z,5.63
2023-03-29T02:08:55.765Z,5.62
2023-03-29T02:11:24.786Z,5.63
2023-03-29T02:13:51.476Z,5.61
2023-03-29T02:16:19.086Z,5.61
2023-03-29T02:18:48.737Z,5.60
2023-03-29T02:21:34.000Z,5.61
2023-03-29T02:24:06.334Z,5.62
2023-03-29T02:26:33.109Z,5.60
2023-03-29T02:28:59.696Z,5.61
2023-03-29T02:31:40.895Z,5.62
2023-03-29T02:34:19.880Z,5.61
2023-03-29T02:36:48.164Z,5.61
2023-03-29T02:39:16.936Z,5.61
2023-03-29T02:41:47.091Z,5.63
2023-03-29T02:44:18.663Z,5.63
2023-03-29T02:46:48.782Z,5.63
2023-03-29T02:49:15.427Z,5.63
2023-03-29T02:51:42.492Z,5.65
2023-03-29T02:54:22.617Z,5.64
2023-03-29T02:56:55.983Z,5.63
2023-03-29T02:59:22.607Z,5.63
2023-03-29T03:01:49.607Z,5.62
2023-03-29T03:04:18.507Z,5.62
2023-03-29T03:06:44.969Z,5.63
2023-03-29T03:09:11.710Z,5.62
2023-03-29T03:11:38.180Z,5.62
2023-03-29T03:14:05.750Z,5.62
2023-03-29T03:16:32.391Z,5.63
2023-03-29T03:18:59.064Z,5.63
2023-03-29T03:21:28.070Z,5.64
2023-03-29T03:23:55.639Z,5.64
2023-03-29T03:26:23.250Z,5.64
2023-03-29T03:28:49.821Z,5.65
2023-03-29T03:31:17.428Z,5.64
2023-03-29T03:33:44.697Z,5.64
2023-03-29T03:36:11.584Z,5.62
2023-03-29T03:38:38.923Z,5.63
2023-03-29T03:41:07.255Z,5.62
2023-03-29T03:43:34.529Z,5.62
2023-03-29T03:46:01.921Z,5.62
2023-03-29T03:48:28.536Z,5.62
2023-03-29T03:50:57.060Z,5.63
2023-03-29T03:53:25.306Z,5.64
2023-03-29T03:55:53.280Z,5.65
2023-03-29T03:58:19.955Z,5.64
2023-03-29T04:00:50.535Z,5.66
2023-03-29T04:03:18.105Z,5.65
2023-03-29T04:05:46.305Z,5.66
2023-03-29T04:08:13.849Z,5.66
2023-03-29T04:10:40.770Z,5.66
2023-03-29T04:13:07.644Z,5.65
2023-03-29T04:15:38.546Z,5.66
2023-03-29T04:18:07.201Z,5.65
2023-03-29T04:20:34.472Z,5.66
2023-03-29T04:23:01.030Z,5.66
2023-03-29T04:25:27.516Z,5.67
2023-03-29T04:27:54.038Z,5.67
2023-03-29T04:30:20.582Z,5.69
2023-03-29T04:32:47.273Z,5.70
2023-03-29T04:35:13.725Z,5.70
2023-03-29T04:37:40.342Z,5.72
2023-03-29T04:40:14.149Z,5.71
2023-03-29T04:42:45.826Z,5.68
2023-03-29T04:45:19.698Z,5.71
2023-03-29T04:47:46.339Z,5.71
2023-03-29T04:50:13.874Z,5.71
2023-03-29T04:52:40.790Z,5.71
2023-03-29T04:55:07.897Z,5.72
2023-03-29T04:57:34.530Z,5.71
2023-03-29T05:00:01.761Z,5.73
2023-03-29T05:02:30.906Z,5.72
2023-03-29T05:04:57.546Z,5.74
2023-03-29T05:07:24.576Z,5.75
2023-03-29T05:09:51.251Z,5.75
2023-03-29T05:12:17.731Z,5.78
2023-03-29T05:14:44.251Z,5.78
2023-03-29T05:17:10.741Z,5.78
2023-03-29T05:19:38.261Z,5.80
2023-03-29T05:22:04.991Z,5.82
2023-03-29T05:24:31.692Z,5.84
2023-03-29T05:26:58.219Z,5.84
2023-03-29T05:29:24.710Z,5.85
2023-03-29T05:31:52.443Z,5.87
2023-03-29T05:34:19.957Z,5.88
2023-03-29T05:36:46.497Z,5.89
2023-03-29T05:39:12.975Z,5.91
2023-03-29T05:41:40.338Z,5.91
2023-03-29T05:44:07.260Z,5.94
2023-03-29T05:46:33.881Z,5.94
2023-03-29T05:49:01.361Z,5.96
2023-03-29T05:51:27.961Z,5.97
2023-03-29T05:53:54.458Z,5.99
2023-03-29T05:56:22.442Z,6.00
2023-03-29T05:58:49.508Z,6.03
2023-03-29T06:01:17.895Z,6.05
2023-03-29T06:03:46.152Z,6.07
2023-03-29T06:06:16.463Z,6.09
2023-03-29T06:08:44.303Z,6.12
2023-03-29T06:11:13.329Z,6.15
2023-03-29T06:13:42.053Z,6.18
2023-03-29T06:16:13.306Z,6.22
2023-03-29T06:18:41.018Z,6.24
2023-03-29T06:21:09.265Z,6.27
2023-03-29T06:23:36.673Z,6.30
2023-03-29T06:26:03.931Z,6.34
2023-03-29T06:28:30.720Z,6.37
2023-03-29T06:33:30.594Z,6.44
2023-03-29T06:35:57.552Z,6.49
2023-03-29T06:38:26.727Z,6.58
2023-03-29T06:41:00.814Z,6.67
2023-03-29T06:43:27.546Z,6.72
2023-03-29T06:45:54.862Z,6.76
2023-03-29T06:48:21.598Z,6.80
2023-03-29T06:50:48.715Z,6.83
2023-03-29T06:53:18.011Z,6.89
2023-03-29T06:55:44.594Z,6.95
2023-03-29T06:58:11.221Z,7.01
2023-03-29T07:00:39.243Z,7.05
2023-03-29T07:03:09.795Z,7.08
2023-03-29T07:05:40.673Z,7.11
2023-03-29T07:08:07.780Z,7.12
2023-03-29T07:10:41.142Z,7.17
2023-03-29T07:13:13.178Z,7.30
2023-03-29T07:15:41.650Z,7.46
2023-03-29T07:18:09.613Z,7.55
2023-03-29T07:20:38.321Z,7.55
2023-03-29T07:23:05.753Z,7.64
2023-03-29T07:25:33.946Z,7.71
2023-03-29T07:28:00.464Z,7.70
2023-03-29T07:30:31.643Z,7.73
2023-03-29T07:32:59.527Z,7.71
2023-03-29T07:35:27.004Z,7.68
2023-03-29T07:37:55.452Z,7.69
2023-03-29T07:40:23.401Z,7.70
2023-03-29T07:42:53.066Z,7.75
2023-03-29T07:45:26.805Z,7.84
2023-03-29T07:47:57.563Z,7.92
2023-03-29T07:50:24.976Z,7.95
2023-03-29T07:52:51.775Z,8.03
2023-03-29T07:55:18.471Z,8.15
2023-03-29T07:57:44.969Z,8.21
2023-03-29T08:00:17.065Z,8.23
2023-03-29T08:02:49.740Z,8.25
2023-03-29T08:05:26.095Z,8.36
2023-03-29T08:08:00.885Z,8.37
2023-03-29T08:10:27.806Z,8.42
2023-03-29T08:12:54.388Z,8.47
2023-03-29T08:15:20.880Z,8.45
2023-03-29T08:17:47.376Z,8.44
2023-03-29T08:20:16.217Z,8.48
2023-03-29T08:22:43.211Z,8.58
2023-03-29T08:25:10.371Z,8.65
2023-03-29T08:27:37.620Z,8.69
2023-03-29T08:30:07.835Z,8.75
2023-03-29T08:32:34.293Z,8.82
2023-03-29T08:35:03.782Z,8.86
2023-03-29T08:37:31.744Z,8.93
2023-03-29T08:39:58.535Z,8.95
2023-03-29T08:42:55.258Z,9.03
2023-03-29T08:45:27.759Z,9.16
2023-03-29T08:48:09.633Z,9.19
2023-03-29T08:50:40.499Z,9.23
2023-03-29T08:53:32.511Z,9.20
2023-03-29T08:56:02.412Z,9.17
2023-03-29T08:58:32.803Z,9.20
2023-03-29T09:01:03.786Z,9.20
2023-03-29T09:03:35.032Z,9.18
2023-03-29T09:06:07.682Z,9.20
2023-03-29T09:08:39.383Z,9.34
2023-03-29T09:11:26.062Z,9.40
2023-03-29T09:14:27.012Z,9.38
2023-03-29T09:16:56.416Z,9.36
2023-03-29T09:19:37.779Z,9.37
2023-03-29T09:22:04.270Z,9.42
2023-03-29T09:24:44.344Z,9.44
2023-03-29T09:27:50.268Z,9.57
2023-03-29T09:30:26.286Z,9.73
2023-03-29T09:32:56.637Z,9.80
2023-03-29T09:35:41.210Z,9.86
2023-03-29T09:38:12.385Z,10.03
2023-03-29T09:40:48.933Z,10.22
2023-03-29T09:43:19.217Z,10.22
2023-03-29T09:45:53.232Z,10.18
2023-03-29T09:48:20.760Z,10.22
2023-03-29T09:50:51.250Z,10.41
2023-03-29T09:53:19.555Z,10.48
2023-03-29T09:55:50.308Z,10.50
2023-03-29T09:58:25.089Z,10.46
2023-03-29T10:00:53.163Z,10.37
2023-03-29T10:03:28.490Z,10.35
2023-03-29T10:05:58.476Z,10.41
2023-03-29T10:08:39.139Z,10.44
2023-03-29T10:11:23.317Z,10.50
2023-03-29T10:13:56.816Z,10.67
2023-03-29T10:16:25.923Z,10.90
2023-03-29T10:18:54.571Z,10.98
2023-03-29T10:21:22.048Z,11.06
2023-03-29T10:23:49.970Z,11.23
2023-03-29T10:26:24.805Z,11.22
2023-03-29T10:28:54.864Z,11.25
2023-03-29T10:31:22.661Z,11.29
2023-03-29T10:33:57.368Z,11.24
2023-03-29T10:36:27.223Z,11.30
2023-03-29T10:38:57.422Z,11.43
2023-03-29T10:41:27.056Z,11.49
2023-03-29T10:43:54.537Z,11.49
2023-03-29T10:46:30.163Z,11.41
2023-03-29T10:48:57.767Z,11.49
2023-03-29T10:51:27.861Z,11.45
2023-03-29T10:53:54.346Z,11.39
2023-03-29T10:56:37.104Z,11.24
2023-03-29T10:59:29.578Z,11.28
2023-03-29T11:02:14.802Z,11.48
2023-03-29T11:04:56.697Z,11.53
2023-03-29T11:08:08.023Z,11.46
2023-03-29T11:11:02.565Z,11.32
2023-03-29T11:13:48.019Z,11.32
2023-03-29T11:16:46.824Z,11.23
2023-03-29T11:19:26.357Z,11.25
2023-03-29T11:22:03.022Z,11.20
2023-03-29T11:24:50.115Z,11.26
2023-03-29T11:27:31.228Z,11.23
2023-03-29T11:30:16.621Z,11.14
2023-03-29T11:33:04.967Z,11.28
2023-03-29T11:35:31.654Z,11.25
2023-03-29T11:38:27.945Z,11.29
2023-03-29T11:41:16.048Z,11.41
2023-03-29T11:43:58.700Z,11.51
2023-03-29T11:46:33.714Z,11.64
2023-03-29T11:49:12.420Z,11.97
2023-03-29T11:51:54.415Z,12.13
2023-03-29T11:54:41.100Z,11.95
2023-03-29T11:57:29.257Z,11.89
2023-03-29T12:00:05.866Z,11.96
2023-03-29T12:02:46.147Z,12.04
2023-03-29T12:05:39.587Z,12.11
2023-03-29T12:08:15.310Z,12.10
2023-03-29T12:10:53.725Z,11.92
2023-03-29T12:13:33.854Z,11.84
2023-03-29T12:16:08.764Z,11.69
2023-03-29T12:18:51.400Z,11.66
2023-03-29T12:21:22.945Z,11.69
2023-03-29T12:23:50.708Z,11.69
2023-03-29T12:26:44.726Z,11.78
2023-03-29T12:29:14.020Z,11.79
2023-03-29T12:31:53.013Z,11.70
2023-03-29T12:34:35.912Z,11.56
2023-03-29T12:37:09.722Z,11.42
2023-03-29T12:39:37.499Z,11.33
2023-03-29T12:42:17.643Z,11.25
2023-03-29T12:44:49.582Z,11.19
2023-03-29T12:47:25.266Z,11.09
2023-03-29T12:49:56.612Z,11.07
2023-03-29T12:52:41.977Z,11.06
2023-03-29T12:55:29.633Z,11.06
2023-03-29T12:58:06.747Z,11.07
2023-03-29T13:01:05.800Z,11.23
2023-03-29T13:03:49.263Z,11.38
2023-03-29T13:06:35.313Z,11.48
2023-03-29T13:09:20.286Z,11.58
2023-03-29T13:11:53.552Z,11.58
2023-03-29T13:14:23.953Z,11.59
2023-03-29T13:16:50.557Z,11.58
2023-03-29T13:19:36.948Z,11.70
2023-03-29T13:22:25.137Z,11.85
2023-03-29T13:25:10.076Z,11.97
2023-03-29T13:28:04.744Z,12.12
2023-03-29T13:30:45.932Z,12.23
2023-03-29T13:33:38.202Z,12.26
2023-03-29T13:36:18.016Z,12.21
2023-03-29T13:38:48.721Z,12.19
2023-03-29T13:41:37.825Z,12.22
2023-03-29T13:44:05.271Z,12.16
2023-03-29T13:46:42.534Z,12.27
2023-03-29T13:49:15.506Z,12.33
2023-03-29T13:51:58.897Z,12.33
2023-03-29T13:54:33.030Z,12.39
2023-03-29T13:57:11.110Z,12.47
2023-03-29T13:59:49.678Z,12.54
2023-03-29T14:02:53.657Z,12.62
2023-03-29T14:05:28.723Z,12.76
2023-03-29T14:07:55.553Z,12.78
2023-03-29T14:10:31.995Z,12.88
2023-03-29T14:13:04.251Z,12.97
2023-03-29T14:15:51.590Z,12.95
2023-03-29T14:18:22.612Z,13.02
2023-03-29T14:20:54.884Z,13.09
2023-03-29T14:23:27.289Z,13.14
2023-03-29T14:25:53.808Z,13.17
2023-03-29T14:28:28.829Z,13.14
2023-03-29T14:30:56.583Z,13.09
2023-03-29T14:33:33.438Z,13.23
2023-03-29T14:36:05.026Z,13.27
2023-03-29T14:38:32.388Z,13.34
2023-03-29T14:41:00.428Z,13.49
2023-03-29T14:43:30.350Z,13.55
2023-03-29T14:45:58.388Z,13.60
2023-03-29T14:48:25.768Z,13.71
2023-03-29T14:50:52.783Z,13.80
2023-03-29T14:53:22.675Z,13.91
2023-03-29T14:55:52.977Z,13.94
2023-03-29T14:58:19.962Z,13.90
2023-03-29T15:00:50.227Z,13.96
2023-03-29T15:03:17.061Z,13.98
2023-03-29T15:05:50.006Z,13.93
2023-03-29T15:08:32.327Z,13.93
2023-03-29T15:10:59.471Z,13.97
2023-03-29T15:13:27.506Z,14.03
2023-03-29T15:15:58.960Z,14.05
2023-03-29T15:18:40.944Z,14.05
2023-03-29T15:21:09.267Z,14.02
2023-03-29T15:23:41.179Z,13.95
2023-03-29T15:26:07.678Z,13.87
2023-03-29T15:28:35.768Z,13.88
2023-03-29T15:31:14.248Z,13.91
2023-03-29T15:33:42.296Z,13.95
2023-03-29T15:36:12.075Z,13.95
2023-03-29T15:38:44.443Z,13.90
2023-03-29T15:41:13.517Z,13.84
2023-03-29T15:43:41.227Z,13.79
2023-03-29T15:46:08.239Z,13.76
2023-03-29T15:48:35.207Z,13.70
2023-03-29T15:51:05.501Z,13.64
2023-03-29T15:53:33.264Z,13.64
2023-03-29T15:56:01.930Z,13.66
2023-03-29T15:58:31.597Z,13.67
2023-03-29T16:01:11.274Z,13.59
2023-03-29T16:03:41.833Z,13.59
2023-03-29T16:06:12.269Z,13.65
2023-03-29T16:08:38.988Z,13.71
2023-03-29T16:11:06.763Z,13.66
2023-03-29T16:13:33.412Z,13.64
2023-03-29T16:15:59.985Z,13.62
2023-03-29T16:18:27.162Z,13.66
2023-03-29T16:20:54.272Z,13.65
2023-03-29T16:23:20.797Z,13.60
2023-03-29T16:25:47.385Z,13.57
2023-03-29T16:28:13.971Z,13.55
2023-03-29T16:30:43.589Z,13.58
2023-03-29T16:33:10.704Z,13.60
2023-03-29T16:35:39.999Z,13.59
2023-03-29T16:38:08.065Z,13.57
2023-03-29T16:40:35.103Z,13.55
2023-03-29T16:43:01.758Z,13.52
2023-03-29T16:45:28.304Z,13.46
2023-03-29T16:47:55.869Z,13.41
2023-03-29T16:50:23.793Z,13.35
2023-03-29T16:52:52.413Z,13.33
2023-03-29T16:55:19.293Z,13.27
2023-03-29T16:57:47.148Z,13.20
2023-03-29T17:00:15.952Z,13.20
2023-03-29T17:02:43.745Z,13.19
2023-03-29T17:05:12.048Z,13.17
2023-03-29T17:07:39.345Z,13.16
2023-03-29T17:10:08.250Z,13.13
2023-03-29T17:12:35.731Z,13.09
2023-03-29T17:15:03.346Z,13.10
2023-03-29T17:17:29.862Z,13.08
2023-03-29T17:19:57.108Z,13.07
2023-03-29T17:22:24.824Z,13.06
2023-03-29T17:24:51.420Z,13.06
2023-03-29T17:27:18.778Z,13.04
2023-03-29T17:29:45.428Z,13.03
2023-03-29T17:32:13.167Z,13.00
2023-03-29T17:34:39.734Z,12.97
2023-03-29T17:37:06.330Z,12.95
2023-03-29T17:39:37.498Z,12.93
2023-03-29T17:42:05.667Z,12.91
2023-03-29T17:44:33.379Z,12.88
2023-03-29T17:47:00.882Z,12.87
2023-03-29T17:49:27.864Z,12.83
2023-03-29T17:51:54.615Z,12.77
2023-03-29T18:03:36.082Z,12.50
2023-03-29T18:21:12.766Z,12.16
2023-03-29T18:23:42.175Z,12.11
2023-03-29T18:26:09.326Z,12.07
2023-03-29T18:28:37.477Z,12.01
2023-03-29T18:31:05.536Z,11.98
2023-03-29T18:33:35.184Z,11.93
2023-03-29T18:36:09.159Z,11.91
2023-03-29T18:38:40.517Z,11.86
2023-03-29T18:41:08.508Z,11.79
2023-03-29T18:43:35.412Z,11.76
2023-03-29T18:46:02.475Z,11.73
2023-03-29T18:48:30.289Z,11.72
2023-03-29T18:50:57.830Z,11.71
2023-03-29T18:53:24.741Z,11.70
2023-03-29T18:55:51.202Z,11.74
2023-03-29T18:58:18.098Z,11.75
2023-03-29T19:00:44.833Z,11.73
2023-03-29T19:03:11.635Z,11.67
2023-03-29T19:05:39.421Z,11.63
2023-03-29T19:08:07.089Z,11.62
2023-03-29T19:10:38.816Z,11.57
2023-03-29T19:13:06.055Z,11.57
2023-03-29T19:15:34.602Z,11.54
2023-03-29T19:18:01.483Z,11.50
2023-03-29T19:20:29.289Z,11.47
2023-03-29T19:22:56.310Z,11.46
2023-03-29T19:25:22.930Z,11.45
2023-03-29T19:27:50.233Z,11.43
2023-03-29T19:30:18.104Z,11.41
2023-03-29T19:32:44.585Z,11.43
2023-03-29T19:35:12.822Z,11.44
2023-03-29T19:37:39.684Z,11.43
2023-03-29T19:40:08.162Z,11.41
2023-03-29T19:42:37.466Z,11.42
2023-03-29T19:45:09.656Z,11.42
2023-03-29T19:47:37.180Z,11.40
2023-03-29T19:50:04.935Z,11.39
2023-03-29T19:52:31.495Z,11.39
2023-03-29T19:55:00.777Z,11.40
2023-03-29T19:57:28.229Z,11.39
2023-03-29T19:59:54.767Z,11.37
2023-03-29T20:02:21.248Z,11.33
2023-03-29T20:04:47.852Z,11.28
2023-03-29T20:07:14.365Z,11.25
2023-03-29T20:09:44.644Z,11.26
2023-03-29T20:12:12.024Z,11.24
2023-03-29T20:14:40.132Z,11.22
2023-03-29T20:17:07.310Z,11.19
2023-03-29T20:19:36.768Z,11.21
2023-03-29T20:22:04.469Z,11.24
2023-03-29T20:24:32.530Z,11.24
2023-03-29T20:26:59.117Z,11.26
2023-03-29T20:29:25.668Z,11.24
2023-03-29T20:31:52.255Z,11.25
2023-03-29T20:34:19.077Z,11.26
2023-03-29T20:36:46.972Z,11.28
2023-03-29T20:39:17.787Z,11.31
2023-03-29T20:41:47.713Z,11.36
2023-03-29T20:44:16.910Z,11.39
2023-03-29T20:46:54.595Z,11.41
2023-03-29T20:49:26.465Z,11.46
2023-03-29T20:51:58.385Z,11.49
2023-03-29T20:54:25.948Z,11.55
2023-03-29T20:56:54.436Z,11.59
2023-03-29T20:59:22.829Z,11.62
2023-03-29T21:01:50.239Z,11.65
2023-03-29T21:04:16.968Z,11.67
2023-03-29T21:06:45.742Z,11.69
2023-03-29T21:09:13.223Z,11.69
2023-03-29T21:11:40.880Z,11.66
2023-03-29T21:14:09.252Z,11.62
2023-03-29T21:25:40.603Z,11.59
2023-03-29T21:28:07.161Z,11.59
2023-03-29T21:30:33.588Z,11.58
2023-03-29T21:33:01.000Z,11.56
2023-03-29T21:35:28.213Z,11.55
2023-03-29T21:37:54.886Z,11.54
2023-03-29T21:40:21.503Z,11.54
2023-03-29T21:42:47.980Z,11.53
2023-03-29T21:45:15.490Z,11.52
2023-03-29T21:47:42.031Z,11.51
2023-03-29T21:50:09.407Z,11.47
2023-03-29T21:52:37.778Z,11.43
2023-03-29T21:55:05.857Z,11.40
2023-03-29T21:57:32.348Z,11.39
2023-03-29T21:59:58.931Z,11.38
2023-03-29T22:02:25.638Z,11.37
2023-03-29T22:04:52.127Z,11.35
2023-03-29T22:07:18.553Z,11.32
2023-03-29T22:09:46.505Z,11.33
2023-03-29T22:12:12.982Z,11.33
2023-03-29T22:14:39.528Z,11.32
2023-03-29T22:17:06.912Z,11.32
2023-03-29T22:19:41.740Z,11.35
2023-03-29T22:22:13.499Z,11.35
2023-03-29T22:24:41.349Z,11.36
2023-03-29T22:27:08.362Z,11.34
2023-03-29T22:29:34.934Z,11.29
2023-03-29T22:32:01.798Z,11.23
2023-03-29T22:34:28.411Z,11.21
2023-03-29T22:36:54.910Z,11.20
2023-03-29T22:39:21.779Z,11.20
2023-03-29T22:41:48.341Z,11.21
2023-03-29T22:44:14.782Z,11.21
2023-03-29T22:46:42.415Z,11.23
2023-03-29T22:49:09.685Z,11.26
2023-03-29T22:51:36.508Z,11.25
2023-03-29T22:54:03.484Z,11.25
2023-03-29T22:56:29.954Z,11.30
2023-03-29T22:58:56.486Z,11.31
2023-03-29T23:01:22.914Z,11.36
2023-03-29T23:03:49.495Z,11.39
2023-03-29T23:06:16.143Z,11.37
2023-03-29T23:08:42.690Z,11.36
2023-03-29T23:11:09.126Z,11.35
2023-03-29T23:13:35.712Z,11.35
2023-03-29T23:16:03.630Z,11.37
2023-03-29T23:18:31.867Z,11.40
2023-03-29T23:20:58.976Z,11.44
2023-03-29T23:23:26.823Z,11.46
2023-03-29T23:25:55.465Z,11.51
2023-03-29T23:28:25.912Z,11.56
2023-03-29T23:31:09.794Z,11.57
2023-03-29T23:33:42.535Z,11.59
2023-03-29T23:36:15.112Z,11.59
2023-03-29T23:38:42.274Z,11.59
2023-03-29T23:41:10.805Z,11.61
2023-03-29T23:43:40.517Z,11.63
2023-03-29T23:46:11.013Z,11.63
2023-03-29T23:48:38.574Z,11.66
2023-03-29T23:51:07.757Z,11.69
2023-03-29T23:53:34.250Z,11.73
2023-03-29T23:56:03.121Z,11.75
2023-03-29T23:58:32.293Z,11.76
